Time;durP1;ratioP1;P1;durP2;ratioP2;P2;SDS_P1;SDS_P2;PMS_P1;PMS_P2;Temp;Humidity;BMP_temperature;BMP_pressure;BME280_temperature;BME280_humidity;BME280_pressure;Samples;Min_cycle;Max_cycle;Signal;HPM_P1;HPM_P2
2024/04/15 00:00:41;;;;;;;4.32;1.73;;;;;;;15.52;37.88;94259.13;5251942;26;20361;-77
2024/04/15 00:03:06;;;;;;;2.00;1.77;;;;;;;15.46;37.99;94255.84;5254919;26;20403;-77
2024/04/15 00:05:32;;;;;;;3.15;2.00;;;;;;;15.43;38.46;94251.94;5253264;26;20319;-77
2024/04/15 00:07:57;;;;;;;2.95;1.90;;;;;;;15.45;38.19;94249.72;5241762;26;20006;-78
2024/04/15 00:10:23;;;;;;;3.85;1.95;;;;;;;15.37;38.38;94250.56;5245222;26;20605;-77
2024/04/15 00:12:51;;;;;;;3.03;2.33;;;;;;;15.32;38.71;94250.00;5245004;26;20010;-78
2024/04/15 00:15:16;;;;;;;2.10;1.90;;;;;;;15.28;38.59;94243.75;5257046;26;20011;-77
2024/04/15 00:17:42;;;;;;;3.40;2.40;;;;;;;15.13;38.86;94237.13;5244027;26;20114;-77
2024/04/15 00:20:08;;;;;;;4.65;2.40;;;;;;;15.25;39.03;94239.84;5243766;26;20013;-77
2024/04/15 00:22:33;;;;;;;2.83;2.42;;;;;;;15.27;39.16;94232.25;5250193;26;20240;-77
2024/04/15 00:24:58;;;;;;;4.15;1.90;;;;;;;15.29;39.38;94230.03;5248503;26;20707;-77
2024/04/15 00:27:24;;;;;;;4.53;2.17;;;;;;;15.27;39.41;94234.91;5255994;26;21132;-77
2024/04/15 00:29:49;;;;;;;3.45;1.88;;;;;;;15.18;39.95;94234.22;5246891;26;20110;-77
2024/04/15 00:32:15;;;;;;;3.17;1.83;;;;;;;15.14;39.96;94240.59;5250417;26;20022;-76
2024/04/15 00:34:40;;;;;;;5.88;2.13;;;;;;;15.09;39.47;94244.25;5250752;26;20855;-77
2024/04/15 00:37:05;;;;;;;4.82;2.40;;;;;;;15.07;39.28;94243.78;5226382;27;20013;-77
2024/04/15 00:39:31;;;;;;;3.63;2.38;;;;;;;15.00;39.47;94244.34;5242789;26;20006;-77
2024/04/15 00:41:56;;;;;;;3.90;1.88;;;;;;;15.03;39.88;94245.56;5243783;26;20420;-77
2024/04/15 00:44:33;;;;;;;3.45;2.22;;;;;;;15.04;39.59;94241.78;5250562;26;20021;-77
2024/04/15 00:46:59;;;;;;;4.72;2.55;;;;;;;15.07;39.64;94237.66;5253000;26;20018;-77
2024/04/15 00:49:24;;;;;;;5.18;2.70;;;;;;;15.06;39.47;94236.88;5248229;26;20026;-77
2024/04/15 00:51:50;;;;;;;3.20;2.38;;;;;;;15.00;40.05;94230.16;5250999;26;20025;-77
2024/04/15 00:54:15;;;;;;;3.15;2.03;;;;;;;15.02;39.60;94233.28;5246868;26;20021;-77
2024/04/15 00:56:41;;;;;;;3.30;2.40;;;;;;;15.11;39.54;94228.63;5243910;26;20073;-77
2024/04/15 00:59:09;;;;;;;3.33;2.47;;;;;;;14.94;40.15;94212.72;5256940;26;20433;-77
2024/04/15 01:01:34;;;;;;;4.75;2.38;;;;;;;14.93;40.10;94221.88;5257192;26;20041;-77
2024/04/15 01:04:00;;;;;;;3.13;2.63;;;;;;;14.83;40.22;94207.00;5254995;26;20345;-77
2024/04/15 01:06:25;;;;;;;3.13;2.65;;;;;;;14.62;40.60;94216.94;5258614;26;20357;-77
2024/04/15 01:08:51;;;;;;;3.30;2.45;;;;;;;14.44;40.98;94205.59;5245061;26;20009;-77
2024/04/15 01:11:16;;;;;;;3.10;2.28;;;;;;;14.53;40.69;94222.38;5251738;26;20070;-77
2024/04/15 01:13:41;;;;;;;3.28;2.35;;;;;;;14.53;40.92;94219.72;5255327;26;20491;-77
2024/04/15 01:16:07;;;;;;;2.42;2.15;;;;;;;14.29;41.02;94198.16;5250195;26;20014;-78
2024/04/15 01:18:32;;;;;;;4.30;2.47;;;;;;;14.43;41.03;94220.06;5252332;26;20397;-77
2024/04/15 01:20:59;;;;;;;3.55;1.98;;;;;;;14.47;41.45;94215.63;5250062;26;20527;-78
2024/04/15 01:23:28;;;;;;;4.55;3.25;;;;;;;14.52;41.60;94226.13;5257039;26;20046;-77
2024/04/15 01:25:54;;;;;;;4.75;1.85;;;;;;;14.45;41.30;94219.75;5258749;26;20079;-78
2024/04/15 01:28:20;;;;;;;2.63;2.03;;;;;;;14.45;41.28;94228.56;5263243;26;20088;-78
2024/04/15 01:30:48;;;;;;;2.25;2.00;;;;;;;14.35;41.57;94218.25;5243589;26;20001;-78
2024/04/15 01:33:14;;;;;;;6.00;2.25;;;;;;;14.26;41.85;94219.44;5255470;26;21080;-77
2024/04/15 01:35:39;;;;;;;2.47;2.08;;;;;;;14.24;41.71;94217.06;5253928;26;20017;-77
2024/04/15 01:38:05;;;;;;;5.13;2.30;;;;;;;14.25;41.98;94213.28;5256796;26;20084;-78
2024/04/15 01:40:30;;;;;;;4.97;1.90;;;;;;;14.32;41.47;94218.91;5253158;26;20053;-78
2024/04/15 01:42:56;;;;;;;6.60;2.33;;;;;;;14.32;41.12;94213.56;5246520;26;20013;-77
2024/04/15 01:45:21;;;;;;;3.55;2.13;;;;;;;14.35;41.44;94209.44;5258314;26;20009;-78
2024/04/15 01:47:47;;;;;;;5.10;2.03;;;;;;;14.32;41.88;94213.56;5258963;26;20413;-78
2024/04/15 01:50:14;;;;;;;4.10;1.95;;;;;;;14.37;41.54;94210.69;5259483;26;20085;-78
2024/04/15 01:52:40;;;;;;;4.10;2.13;;;;;;;14.32;42.01;94208.22;5244780;26;20091;-77
2024/04/15 01:55:06;;;;;;;3.67;2.20;;;;;;;14.37;41.83;94210.69;5251197;26;20045;-78
2024/04/15 01:57:31;;;;;;;4.50;2.33;;;;;;;14.26;42.09;94212.19;5256860;26;20009;-78
2024/04/15 01:59:56;;;;;;;3.88;1.90;;;;;;;14.34;41.83;94205.97;5251279;26;20010;-77
2024/04/15 02:02:22;;;;;;;5.75;2.03;;;;;;;14.31;42.34;94206.66;5255925;26;20006;-78
2024/04/15 02:04:47;;;;;;;4.70;2.20;;;;;;;14.24;42.22;94206.38;5248010;26;20659;-77
2024/04/15 02:07:12;;;;;;;4.88;2.15;;;;;;;14.15;42.45;94203.75;5254929;26;20025;-77
2024/04/15 02:09:38;;;;;;;2.88;1.98;;;;;;;14.17;42.40;94204.22;5253672;26;20642;-77
2024/04/15 02:12:03;;;;;;;4.65;2.40;;;;;;;14.11;42.75;94197.50;5254730;26;20017;-78
2024/04/15 02:14:29;;;;;;;3.78;2.13;;;;;;;14.10;42.40;94200.50;5250245;26;20170;-80
2024/04/15 02:16:54;;;;;;;3.67;2.35;;;;;;;14.04;42.50;94199.13;5256865;26;20351;-78
2024/04/15 02:19:20;;;;;;;3.22;2.13;;;;;;;14.02;42.97;94193.31;5260169;26;20007;-78
2024/04/15 02:21:45;;;;;;;3.72;2.10;;;;;;;13.88;43.06;94182.09;5257532;26;20024;-77
2024/04/15 02:24:13;;;;;;;5.18;2.63;;;;;;;13.94;43.23;94194.94;5256631;26;20059;-77
2024/04/15 02:26:39;;;;;;;5.10;2.15;;;;;;;14.01;43.22;94194.44;5253676;26;20009;-77
2024/04/15 02:29:04;;;;;;;4.07;2.25;;;;;;;13.75;43.19;94182.00;5263645;26;20162;-77
2024/04/15 02:31:30;;;;;;;4.07;2.45;;;;;;;13.70;43.72;94186.75;5267517;26;20014;-77
2024/04/15 02:33:56;;;;;;;3.95;1.88;;;;;;;13.73;43.64;94181.56;5260643;26;20026;-77
2024/04/15 02:36:21;;;;;;;4.63;2.10;;;;;;;13.83;43.79;94184.97;5259957;26;20033;-77
2024/04/15 02:38:49;;;;;;;2.58;1.77;;;;;;;13.55;43.82;94190.72;5249510;26;20009;-77
2024/04/15 02:41:14;;;;;;;6.28;2.33;;;;;;;13.46;44.25;94187.31;5256482;26;21269;-76
2024/04/15 02:43:40;;;;;;;6.95;2.42;;;;;;;13.36;44.36;94176.97;5257659;26;20089;-77
2024/04/15 02:46:05;;;;;;;3.22;2.55;;;;;;;13.54;44.17;94183.03;5258589;26;20005;-77
2024/04/15 02:48:31;;;;;;;3.22;2.47;;;;;;;13.51;44.02;94184.47;5260679;26;20014;-77
2024/04/15 02:50:56;;;;;;;4.75;2.70;;;;;;;13.21;44.04;94158.81;5250955;26;20440;-77
2024/04/15 02:53:21;;;;;;;4.47;2.92;;;;;;;13.33;44.52;94180.31;5256259;26;20963;-77
2024/04/15 02:55:49;;;;;;;4.18;3.17;;;;;;;13.36;44.48;94178.88;5260265;26;20028;-77
2024/04/15 02:58:14;;;;;;;5.03;2.90;;;;;;;13.45;44.32;94183.06;5260781;26;20010;-77
2024/04/15 03:00:40;;;;;;;4.10;2.80;;;;;;;13.30;44.77;94178.25;5260764;26;20009;-77
2024/04/15 03:03:05;;;;;;;5.78;3.80;;;;;;;13.20;44.89;94179.41;5256298;26;20024;-77
2024/04/15 03:05:30;;;;;;;5.18;3.10;;;;;;;13.27;44.93;94173.56;5253734;26;20348;-77
2024/04/15 03:07:56;;;;;;;7.07;3.05;;;;;;;13.30;44.82;94172.91;5259129;26;20247;-77
2024/04/15 03:10:21;;;;;;;4.75;3.15;;;;;;;13.27;44.86;94170.91;5265180;26;20639;-77
2024/04/15 03:12:52;;;;;;;4.97;2.83;;;;;;;13.26;45.07;94163.97;5257631;26;20010;-77
2024/04/15 03:15:17;;;;;;;5.38;2.92;;;;;;;13.20;44.90;94173.28;5257923;26;20847;-77
2024/04/15 03:17:47;;;;;;;3.17;2.38;;;;;;;13.15;45.43;94174.22;5260276;26;20021;-77
2024/04/15 03:20:12;;;;;;;5.68;2.90;;;;;;;13.07;45.47;94175.06;5263282;26;20021;-76
2024/04/15 03:22:38;;;;;;;5.40;2.58;;;;;;;13.02;45.62;94171.78;5263415;26;20773;-77
2024/04/15 03:25:03;;;;;;;3.05;2.25;;;;;;;12.97;45.99;94174.59;5253665;26;20312;-77
2024/04/15 03:27:29;;;;;;;5.20;2.78;;;;;;;12.96;45.71;94173.06;5260707;26;20743;-77
2024/04/15 03:29:54;;;;;;;4.78;3.00;;;;;;;12.96;45.91;94167.72;5264175;26;20018;-77
2024/04/15 03:32:19;;;;;;;4.88;2.63;;;;;;;12.94;45.94;94178.72;5269393;26;20468;-76
2024/04/15 03:34:45;;;;;;;2.72;2.28;;;;;;;12.81;46.44;94180.47;5263080;26;20024;-77
2024/04/15 03:37:10;;;;;;;3.50;2.50;;;;;;;12.73;46.33;94175.94;5251145;26;20122;-77
2024/04/15 03:39:35;;;;;;;4.93;2.33;;;;;;;12.72;46.30;94173.56;5258166;26;21063;-77
2024/04/15 03:42:01;;;;;;;3.20;2.30;;;;;;;12.82;46.11;94174.03;5257958;26;20020;-77
2024/04/15 03:44:26;;;;;;;5.68;2.50;;;;;;;12.80;46.36;94176.25;5261126;26;20017;-77
2024/04/15 03:46:52;;;;;;;4.25;2.35;;;;;;;12.81;46.21;94177.78;5257946;26;20353;-77
2024/04/15 03:49:17;;;;;;;5.50;2.30;;;;;;;12.77;46.69;94176.06;5257753;26;20527;-77
2024/04/15 03:51:43;;;;;;;8.63;2.70;;;;;;;12.71;46.69;94170.13;5254372;26;20594;-77
2024/04/15 03:54:08;;;;;;;6.05;3.38;;;;;;;12.74;47.07;94177.50;5260671;26;20041;-77
2024/04/15 03:56:33;;;;;;;5.72;2.10;;;;;;;12.63;47.13;94170.94;5257811;26;20573;-77
2024/04/15 03:58:59;;;;;;;5.32;2.90;;;;;;;12.72;47.14;94173.56;5269473;26;20240;-77
2024/04/15 04:01:24;;;;;;;5.13;2.67;;;;;;;12.83;46.57;94178.25;5258020;26;20010;-77
2024/04/15 04:03:50;;;;;;;4.57;2.85;;;;;;;12.78;47.02;94177.66;5252172;26;20029;-77
2024/04/15 04:06:15;;;;;;;5.50;2.92;;;;;;;12.72;47.00;94178.91;5264406;26;20364;-77
2024/04/15 04:08:40;;;;;;;5.50;2.63;;;;;;;12.73;47.15;94178.59;5263651;26;20087;-77
2024/04/15 04:11:06;;;;;;;5.82;2.97;;;;;;;12.82;47.25;94181.25;5257968;26;20084;-77
2024/04/15 04:13:38;;;;;;;5.13;3.03;;;;;;;12.95;47.26;94185.63;5257832;26;20025;-76
2024/04/15 04:16:04;;;;;;;6.47;3.20;;;;;;;12.96;47.17;94173.06;5263258;26;20579;-77
2024/04/15 04:18:29;;;;;;;3.92;2.78;;;;;;;13.01;47.14;94172.88;5266826;26;20052;-77
2024/04/15 04:20:55;;;;;;;3.60;2.90;;;;;;;13.08;47.20;94184.63;5263485;26;20449;-77
2024/04/15 04:23:20;;;;;;;4.50;3.33;;;;;;;13.23;47.20;94191.34;5262994;26;20356;-76
2024/04/15 04:25:46;;;;;;;4.18;2.83;;;;;;;13.23;47.06;94172.66;5256862;26;20013;-77
2024/04/15 04:28:12;;;;;;;4.07;3.13;;;;;;;13.43;47.00;94182.63;5261468;26;20662;-77
2024/04/15 04:30:37;;;;;;;4.43;2.60;;;;;;;13.46;47.22;94186.53;5262345;26;20029;-79
2024/04/15 04:33:03;;;;;;;4.40;2.30;;;;;;;13.58;47.27;94179.41;5263738;26;20065;-77
2024/04/15 04:35:37;;;;;;;5.22;2.35;;;;;;;13.64;47.71;94191.47;5259669;26;26439;-77
2024/04/15 04:38:03;;;;;;;3.53;2.58;;;;;;;13.70;47.94;94187.53;5262954;26;21807;-79
2024/04/15 04:40:28;;;;;;;5.63;2.65;;;;;;;13.80;47.73;94186.38;5260702;26;20014;-79
2024/04/15 04:42:53;;;;;;;5.85;3.28;;;;;;;13.88;47.00;94188.22;5264559;26;20085;-79
2024/04/15 04:45:19;;;;;;;10.48;4.57;;;;;;;14.01;46.47;94181.06;5264916;26;20466;-79
2024/04/15 04:47:44;;;;;;;12.82;4.78;;;;;;;14.16;46.05;94186.63;5261544;26;20089;-80
2024/04/15 04:50:10;;;;;;;9.77;5.00;;;;;;;14.26;45.70;94182.75;5264652;26;20018;-78
2024/04/15 04:52:35;;;;;;;8.70;4.95;;;;;;;14.31;45.73;94182.56;5264998;26;20006;-79
2024/04/15 04:55:00;;;;;;;11.38;6.10;;;;;;;14.41;45.69;94179.50;5256790;26;20878;-79
2024/04/15 04:57:26;;;;;;;14.18;6.07;;;;;;;14.50;44.99;94174.84;5266297;26;20384;-79
2024/04/15 04:59:54;;;;;;;12.95;5.60;;;;;;;14.53;44.68;94176.88;5262273;26;20010;-79
2024/04/15 05:02:21;;;;;;;13.27;6.45;;;;;;;14.49;44.93;94181.31;5261419;26;20077;-78
2024/04/15 05:04:47;;;;;;;15.38;7.40;;;;;;;14.38;45.44;94176.66;5263330;26;20013;-79
2024/04/15 05:07:12;;;;;;;19.48;6.93;;;;;;;14.42;45.05;94181.03;5262435;26;20006;-79
2024/04/15 05:09:39;;;;;;;18.35;6.63;;;;;;;14.47;45.24;94183.50;5252964;26;20441;-79
2024/04/15 05:12:05;;;;;;;19.25;6.82;;;;;;;14.68;44.76;94172.81;5258928;26;20108;-79
2024/04/15 05:14:30;;;;;;;17.98;6.70;;;;;;;14.66;44.47;94174.28;5268458;26;20010;-79
2024/04/15 05:16:55;;;;;;;19.52;7.57;;;;;;;14.70;44.50;94164.47;5269579;26;20017;-79
2024/04/15 05:19:21;;;;;;;15.88;6.57;;;;;;;14.66;45.17;94136.78;5269133;26;20421;-79
2024/04/15 05:21:46;;;;;;;17.77;6.82;;;;;;;14.82;45.09;94161.81;5259024;26;20137;-79
2024/04/15 05:24:11;;;;;;;15.88;7.50;;;;;;;14.97;44.51;94163.84;5268410;26;20431;-78
2024/04/15 05:26:37;;;;;;;13.25;6.40;;;;;;;14.96;44.62;94165.75;5273575;26;20065;-79
2024/04/15 05:29:02;;;;;;;11.25;6.30;;;;;;;14.97;45.09;94169.22;5269364;26;20022;-78
2024/04/15 05:31:27;;;;;;;19.75;6.93;;;;;;;14.91;45.28;94165.97;5267920;26;20005;-79
2024/04/15 05:33:55;;;;;;;16.50;6.72;;;;;;;15.09;43.78;94171.16;5260479;26;20397;-79
2024/04/15 05:36:20;;;;;;;16.67;6.22;;;;;;;15.17;44.09;94168.34;5251329;27;20442;-78
2024/04/15 05:38:46;;;;;;;11.88;6.65;;;;;;;15.30;43.64;94166.50;5265456;26;20025;-79
2024/04/15 05:41:12;;;;;;;14.25;6.85;;;;;;;15.18;44.31;94175.28;5269052;26;20018;-78
2024/04/15 05:43:37;;;;;;;16.98;6.65;;;;;;;15.44;44.03;94167.75;5263761;26;20014;-79
2024/04/15 05:46:04;;;;;;;16.02;7.20;;;;;;;15.32;44.58;94165.03;5273344;26;20374;-79
2024/04/15 05:48:30;;;;;;;14.20;7.72;;;;;;;15.44;44.09;94157.03;5267411;26;20320;-79
2024/04/15 05:50:55;;;;;;;17.85;7.55;;;;;;;15.62;43.77;94167.53;5266263;26;20025;-80
2024/04/15 05:53:24;;;;;;;12.23;7.20;;;;;;;15.51;43.74;94164.50;5266337;26;20453;-79
2024/04/15 05:55:49;;;;;;;18.75;7.53;;;;;;;15.85;42.94;94165.94;5269492;26;20517;-80
2024/04/15 05:58:14;;;;;;;14.85;7.28;;;;;;;16.06;43.23;94155.84;5265371;26;20341;-79
2024/04/15 06:00:40;;;;;;;15.07;7.50;;;;;;;16.01;43.03;94156.09;5269763;26;20366;-79
2024/04/15 06:03:05;;;;;;;19.42;9.10;;;;;;;15.93;43.77;94158.91;5261651;26;20020;-79
2024/04/15 06:05:32;;;;;;;16.38;7.97;;;;;;;15.75;43.82;94150.31;5265753;26;20015;-79
2024/04/15 06:07:57;;;;;;;14.70;7.20;;;;;;;16.11;42.85;94146.78;5266403;26;20011;-79
2024/04/15 06:10:23;;;;;;;14.73;8.48;;;;;;;16.32;42.12;94125.97;5266515;26;20013;-79
2024/04/15 06:12:48;;;;;;;10.30;6.82;;;;;;;16.59;42.19;94140.50;5265674;26;20087;-79
2024/04/15 06:15:14;;;;;;;19.13;7.40;;;;;;;16.43;42.80;94145.81;5274400;26;20024;-79
2024/04/15 06:17:39;;;;;;;24.10;7.43;;;;;;;16.17;43.27;94111.34;5266467;26;20010;-82
2024/04/15 06:20:06;;;;;;;21.70;8.30;;;;;;;16.62;42.24;94139.81;5273078;26;20018;-80
2024/04/15 06:22:31;;;;;;;18.98;9.60;;;;;;;16.94;41.78;94146.81;5276067;26;20033;-79
2024/04/15 06:24:56;;;;;;;21.08;8.73;;;;;;;17.05;42.55;94130.97;5267578;26;20645;-80
2024/04/15 06:27:22;;;;;;;18.92;7.18;;;;;;;17.01;42.33;94132.78;5269700;26;20014;-79
2024/04/15 06:29:48;;;;;;;16.70;8.00;;;;;;;16.89;42.65;94128.25;5267135;26;20006;-80
2024/04/15 06:32:14;;;;;;;21.13;7.50;;;;;;;17.13;42.03;94132.69;5265670;26;20101;-77
2024/04/15 06:34:39;;;;;;;16.10;6.93;;;;;;;16.91;41.81;94136.75;5265277;26;20006;-80
2024/04/15 06:37:04;;;;;;;20.10;7.47;;;;;;;17.27;40.98;94126.91;5266581;26;20639;-80
2024/04/15 06:39:30;;;;;;;20.85;6.32;;;;;;;17.21;40.88;94133.69;5256614;26;20020;-80
2024/04/15 06:41:55;;;;;;;16.75;6.60;;;;;;;17.55;40.63;94133.00;5271894;26;20029;-80
2024/04/15 06:44:21;;;;;;;15.23;6.45;;;;;;;17.76;40.82;94124.59;5273937;26;20476;-80
2024/04/15 06:46:46;;;;;;;14.90;5.78;;;;;;;17.88;39.21;94127.19;5267841;26;20081;-80
2024/04/15 06:49:12;;;;;;;16.17;5.63;;;;;;;17.75;39.41;94131.91;5272229;26;20034;-80
2024/04/15 06:51:38;;;;;;;18.02;5.22;;;;;;;17.99;39.03;94120.19;5264220;26;20018;-80
2024/04/15 06:54:05;;;;;;;12.63;5.90;;;;;;;17.98;37.58;94119.38;5267317;26;20031;-80
2024/04/15 06:56:32;;;;;;;17.25;5.63;;;;;;;17.85;37.66;94114.44;5267436;26;20002;-80
2024/04/15 06:58:57;;;;;;;14.10;5.38;;;;;;;18.06;38.38;94114.16;5271718;26;20033;-80
2024/04/15 07:01:23;;;;;;;13.32;4.85;;;;;;;18.01;37.72;94113.28;5267688;26;20010;-80
2024/04/15 07:03:48;;;;;;;11.52;4.55;;;;;;;18.13;38.40;94108.91;5264516;26;20006;-80
2024/04/15 07:06:14;;;;;;;6.00;3.85;;;;;;;18.07;37.65;94105.72;5270041;26;20010;-80
2024/04/15 07:08:39;;;;;;;12.27;4.35;;;;;;;18.18;36.75;94100.56;5268684;26;20535;-80
2024/04/15 07:11:05;;;;;;;7.50;4.25;;;;;;;18.30;37.97;94108.50;5267607;26;20006;-80
2024/04/15 07:13:33;;;;;;;7.70;2.67;;;;;;;18.43;36.46;94085.69;5265236;26;20014;-80
2024/04/15 07:15:58;;;;;;;9.23;3.38;;;;;;;18.31;36.92;94096.59;5268952;26;20020;-80
2024/04/15 07:18:23;;;;;;;9.73;3.70;;;;;;;18.26;36.72;94096.88;5263751;26;20599;-80
2024/04/15 07:20:49;;;;;;;8.90;2.83;;;;;;;18.41;36.64;94104.09;5271252;26;20009;-80
2024/04/15 07:23:14;;;;;;;10.07;3.90;;;;;;;18.32;37.41;94093.56;5269487;26;20718;-78
2024/04/15 07:25:40;;;;;;;9.20;3.55;;;;;;;18.62;36.53;94093.75;5262109;26;20010;-80
2024/04/15 07:28:05;;;;;;;7.00;3.03;;;;;;;18.70;36.02;94100.03;5271207;26;20040;-80
2024/04/15 07:30:31;;;;;;;9.27;3.28;;;;;;;18.89;36.25;94097.34;5268962;26;20306;-80
2024/04/15 07:32:56;;;;;;;13.25;3.33;;;;;;;18.82;36.91;94091.84;5268039;26;20014;-80
2024/04/15 07:35:22;;;;;;;11.00;3.80;;;;;;;18.79;36.36;94087.13;5271034;26;20719;-80
2024/04/15 07:37:47;;;;;;;9.23;3.50;;;;;;;19.05;36.46;94084.53;5270203;26;20006;-80
2024/04/15 07:40:12;;;;;;;8.00;3.40;;;;;;;19.24;36.25;94080.97;5270170;26;20008;-81
2024/04/15 07:42:40;;;;;;;8.05;3.67;;;;;;;19.16;36.10;94085.50;5265752;26;20006;-80
2024/04/15 07:45:06;;;;;;;15.70;3.80;;;;;;;19.34;36.31;94066.88;5268548;26;20006;-85
2024/04/15 07:47:31;;;;;;;9.75;4.03;;;;;;;19.22;36.23;94069.75;5268863;26;20021;-80
2024/04/15 07:49:57;;;;;;;8.13;4.07;;;;;;;19.10;36.15;94059.19;5264634;26;20085;-80
2024/04/15 07:52:22;;;;;;;14.43;3.45;;;;;;;18.99;37.16;94074.41;5270824;26;20608;-80
2024/04/15 07:54:48;;;;;;;10.07;3.83;;;;;;;19.13;35.41;94067.31;5274782;26;20025;-80
2024/04/15 07:57:13;;;;;;;6.95;3.72;;;;;;;18.97;35.76;94066.66;5276106;26;20760;-80
2024/04/15 07:59:38;;;;;;;14.05;4.18;;;;;;;19.08;36.04;94061.44;5272951;26;20644;-81
2024/04/15 08:02:04;;;;;;;13.10;3.60;;;;;;;19.13;36.78;94063.84;5267435;26;20006;-80
2024/04/15 08:04:30;;;;;;;18.25;3.70;;;;;;;19.00;36.05;94057.88;5269847;26;20658;-80
2024/04/15 08:06:55;;;;;;;11.45;4.30;;;;;;;19.27;36.05;94059.47;5278187;26;20025;-80
2024/04/15 08:09:21;;;;;;;15.98;4.35;;;;;;;19.08;36.78;94059.53;5271285;26;20088;-80
2024/04/15 08:11:46;;;;;;;10.15;4.65;;;;;;;19.38;35.67;94053.44;5265254;26;20448;-80
2024/04/15 08:14:12;;;;;;;8.85;2.95;;;;;;;19.35;36.01;94035.31;5265488;26;20021;-79
2024/04/15 08:16:37;;;;;;;14.85;4.80;;;;;;;19.37;35.97;94046.50;5270670;26;20041;-80
2024/04/15 08:19:03;;;;;;;8.52;3.75;;;;;;;19.48;35.85;94042.84;5268256;26;20022;-80
2024/04/15 08:21:28;;;;;;;8.02;4.82;;;;;;;19.35;35.75;94040.69;5270598;26;20061;-80
2024/04/15 08:23:54;;;;;;;11.05;3.85;;;;;;;19.47;36.12;94045.91;5267180;26;20006;-80
2024/04/15 08:26:19;;;;;;;19.00;5.57;;;;;;;19.61;35.61;94040.72;5264098;26;20947;-80
2024/04/15 08:28:44;;;;;;;15.82;4.68;;;;;;;19.63;35.22;94025.72;5276460;26;20030;-80
2024/04/15 08:31:10;;;;;;;12.50;4.88;;;;;;;19.64;35.03;94019.19;5271351;26;20087;-80
2024/04/15 08:33:36;;;;;;;18.98;5.05;;;;;;;19.54;36.38;94033.31;5267301;26;20385;-80
2024/04/15 08:36:01;;;;;;;9.98;4.13;;;;;;;19.40;37.23;94019.59;5259643;26;20492;-80
2024/04/15 08:38:27;;;;;;;11.52;4.07;;;;;;;19.66;35.42;94022.28;5273193;26;20021;-80
2024/04/15 08:40:57;;;;;;;10.05;4.00;;;;;;;19.64;35.88;94013.81;5274276;26;20491;-80
2024/04/15 08:43:26;;;;;;;13.07;4.00;;;;;;;19.79;35.84;94019.38;5277345;26;20325;-80
2024/04/15 08:45:53;;;;;;;15.30;4.75;;;;;;;19.69;36.49;94004.59;5267501;26;20047;-80
2024/04/15 08:48:24;;;;;;;12.55;4.00;;;;;;;19.58;36.94;93996.38;5271405;26;21146;-80
2024/04/15 08:50:51;;;;;;;17.02;4.68;;;;;;;19.87;35.82;94005.59;5272687;26;20574;-81
2024/04/15 08:53:16;;;;;;;12.85;4.60;;;;;;;19.93;35.47;94003.38;5274533;26;20020;-80
2024/04/15 08:55:42;;;;;;;11.80;4.32;;;;;;;19.91;35.46;94000.25;5263159;26;20006;-80
2024/04/15 08:58:10;;;;;;;10.95;4.68;;;;;;;19.82;35.52;93999.75;5272488;26;20025;-80
2024/04/15 09:00:38;;;;;;;12.05;3.90;;;;;;;19.86;35.31;94000.56;5272413;26;20001;-81
2024/04/15 09:03:04;;;;;;;11.93;4.38;;;;;;;19.82;35.78;93997.81;5270723;26;20010;-80
2024/04/15 09:05:30;;;;;;;17.65;5.07;;;;;;;19.86;35.71;93997.88;5275115;26;20009;-81
2024/04/15 09:07:56;;;;;;;9.10;4.72;;;;;;;19.86;35.33;93989.78;5267476;26;20084;-80
2024/04/15 09:10:21;;;;;;;14.85;5.05;;;;;;;19.86;35.29;93989.78;5278068;26;20449;-80
2024/04/15 09:12:48;;;;;;;11.10;4.72;;;;;;;19.84;36.24;93983.97;5279417;26;20035;-81
2024/04/15 09:15:14;;;;;;;10.25;4.65;;;;;;;20.14;34.69;93977.38;5274911;26;20033;-80
2024/04/15 09:17:40;;;;;;;11.73;4.03;;;;;;;20.24;34.88;93975.97;5273875;26;20020;-80
2024/04/15 09:20:07;;;;;;;13.45;4.47;;;;;;;20.21;35.33;93975.94;5275982;26;20041;-81
2024/04/15 09:22:35;;;;;;;8.23;3.75;;;;;;;20.32;34.99;93972.22;5270619;26;20018;-80
2024/04/15 09:25:01;;;;;;;17.38;4.43;;;;;;;20.46;35.10;93966.94;5271960;26;20018;-80
2024/04/15 09:27:27;;;;;;;10.25;3.97;;;;;;;20.26;34.69;93952.06;5241126;27;20089;-81
2024/04/15 09:29:57;;;;;;;16.10;4.55;;;;;;;20.39;35.13;93960.69;5256302;26;20029;-80
2024/04/15 09:32:23;;;;;;;8.55;4.18;;;;;;;20.43;34.90;93937.22;5237662;26;20010;-81
2024/04/15 09:34:53;;;;;;;15.43;4.35;;;;;;;20.39;34.77;93956.06;5270831;26;20017;-81
2024/04/15 09:37:19;;;;;;;13.07;6.30;;;;;;;20.57;34.66;93940.03;5268754;26;20021;-80
2024/04/15 09:39:45;;;;;;;14.75;4.85;;;;;;;20.31;34.55;93942.88;5273255;26;20014;-80
2024/04/15 09:42:14;;;;;;;11.90;3.83;;;;;;;20.39;34.06;93947.97;5267706;26;20018;-84
2024/04/15 09:44:45;;;;;;;11.80;4.00;;;;;;;20.42;34.72;93928.31;5266318;26;20002;-80
2024/04/15 09:47:11;;;;;;;7.65;3.92;;;;;;;20.46;35.42;93931.81;5272918;26;20025;-80
2024/04/15 09:49:37;;;;;;;12.82;3.72;;;;;;;20.63;34.99;93926.97;5277966;26;20599;-80
2024/04/15 09:52:05;;;;;;;12.82;4.70;;;;;;;20.78;34.10;93925.91;5269557;26;20009;-80
2024/04/15 09:54:32;;;;;;;7.60;3.30;;;;;;;20.72;35.05;93919.31;5272574;26;20009;-80
2024/04/15 09:57:20;;;;;;;8.10;3.80;;;;;;;20.62;34.48;93918.06;5272969;26;20025;-80
2024/04/15 09:59:54;;;;;;;9.30;3.80;;;;;;;20.65;33.75;93911.13;5270594;26;20010;-81
2024/04/15 10:02:37;;;;;;;15.27;4.20;;;;;;;20.71;34.58;93913.13;5279965;26;20018;-81
2024/04/15 10:05:09;;;;;;;13.13;4.25;;;;;;;20.87;33.00;93910.19;5276832;26;20018;-81
2024/04/15 10:07:39;;;;;;;7.55;3.25;;;;;;;21.10;32.12;93904.53;5272838;26;20016;-81
2024/04/15 10:10:07;;;;;;;6.68;4.18;;;;;;;21.30;32.64;93901.19;5279170;26;20558;-81
2024/04/15 10:12:33;;;;;;;7.78;3.28;;;;;;;21.38;31.57;93886.53;5270368;26;20031;-80
2024/04/15 10:14:59;;;;;;;9.25;3.38;;;;;;;21.37;32.06;93884.97;5280512;26;20408;-81
2024/04/15 10:17:25;;;;;;;9.88;4.25;;;;;;;21.43;32.44;93880.75;5274034;26;20085;-81
2024/04/15 10:19:51;;;;;;;11.23;3.20;;;;;;;21.45;31.92;93875.75;5279111;26;20002;-81
2024/04/15 10:22:17;;;;;;;17.35;3.92;;;;;;;21.54;31.58;93880.03;5273783;26;20083;-81
2024/04/15 10:24:42;;;;;;;7.95;3.70;;;;;;;21.77;31.46;93880.53;5275459;26;20010;-81
2024/04/15 10:27:10;;;;;;;10.63;3.42;;;;;;;21.72;32.20;93861.94;5276832;26;21628;-81
2024/04/15 10:29:38;;;;;;;4.78;3.17;;;;;;;21.82;30.84;93861.19;5276811;26;20099;-80
2024/04/15 10:32:06;;;;;;;9.15;3.80;;;;;;;21.83;31.22;93852.72;5273538;26;20006;-81
2024/04/15 10:34:33;;;;;;;8.60;3.30;;;;;;;21.85;30.62;93855.78;5271515;26;20046;-81
2024/04/15 10:37:01;;;;;;;12.18;3.63;;;;;;;21.96;31.84;93855.81;5281158;26;20013;-81
2024/04/15 10:39:27;;;;;;;3.65;3.22;;;;;;;22.02;30.42;93838.03;5277114;26;20402;-81
2024/04/15 10:41:53;;;;;;;8.38;3.10;;;;;;;22.12;30.25;93837.28;5279128;26;20013;-81
2024/04/15 10:44:19;;;;;;;8.27;3.13;;;;;;;22.28;30.00;93835.00;5273398;26;20013;-81
2024/04/15 10:46:46;;;;;;;5.47;3.35;;;;;;;22.23;28.23;93816.44;5274935;26;20060;-81
2024/04/15 10:49:13;;;;;;;4.35;3.15;;;;;;;22.45;29.09;93822.63;5284976;26;20017;-81
2024/04/15 10:51:39;;;;;;;10.70;3.00;;;;;;;22.49;28.79;93819.91;5271826;26;20010;-80
2024/04/15 10:54:05;;;;;;;5.63;2.78;;;;;;;22.62;27.58;93815.66;5268600;26;20320;-81
2024/04/15 10:56:30;;;;;;;4.72;2.92;;;;;;;22.72;28.52;93801.31;5266678;26;20029;-81
2024/04/15 10:58:56;;;;;;;5.13;2.80;;;;;;;22.86;28.90;93804.00;5268892;26;20645;-82
2024/04/15 11:01:21;;;;;;;7.25;2.90;;;;;;;22.88;27.36;93798.22;5270989;26;20016;-81
2024/04/15 11:03:48;;;;;;;7.80;2.65;;;;;;;22.97;27.91;93782.28;5267793;26;20346;-81
2024/04/15 11:06:16;;;;;;;7.85;3.63;;;;;;;23.15;27.87;93786.50;5265869;26;20010;-81
2024/04/15 11:08:43;;;;;;;6.15;3.22;;;;;;;23.20;26.31;93795.38;5269171;26;20822;-82
2024/04/15 11:11:09;;;;;;;4.60;2.55;;;;;;;23.22;25.00;93787.63;5263671;26;20006;-81
2024/04/15 11:13:35;;;;;;;5.28;2.38;;;;;;;23.30;26.63;93776.34;5266590;26;20362;-82
2024/04/15 11:16:01;;;;;;;15.15;2.70;;;;;;;23.30;29.39;93781.78;5265308;26;20092;-81
2024/04/15 11:18:26;;;;;;;4.57;2.22;;;;;;;23.65;24.92;93766.53;5266157;26;20622;-81
2024/04/15 11:21:02;;;;;;;3.78;2.35;;;;;;;23.56;24.80;93761.53;5235170;26;20590;-81
2024/04/15 11:23:28;;;;;;;6.70;2.70;;;;;;;23.79;26.45;93766.44;5273039;26;20478;-81